createdAt,value
2017-11-13T00:00:22.867Z,995.8
2017-11-13T00:01:37.099Z,995.83
2017-11-13T00:02:51.371Z,995.86
2017-11-13T00:04:06.270Z,995.84
2017-11-13T00:05:21.666Z,995.91
2017-11-13T00:06:36.192Z,995.9
2017-11-13T00:07:51.094Z,995.94
2017-11-13T00:09:06.545Z,995.92
2017-11-13T00:10:21.555Z,995.93
2017-11-13T00:11:37.314Z,995.94
2017-11-13T00:12:52.092Z,995.96
2017-11-13T00:14:08.173Z,995.93
2017-11-13T00:15:24.523Z,995.95
2017-11-13T00:16:40.050Z,995.98
2017-11-13T00:17:56.586Z,995.99
2017-11-13T00:19:11.719Z,996
2017-11-13T00:20:25.948Z,995.98
2017-11-13T00:21:40.142Z,996.02
2017-11-13T00:22:54.354Z,996.04
2017-11-13T00:24:08.842Z,996.12
2017-11-13T00:25:23.015Z,996.12
2017-11-13T00:26:37.803Z,996.14
2017-11-13T00:27:52.003Z,996.14
2017-11-13T00:29:06.358Z,996.16
2017-11-13T00:30:20.718Z,996.17
2017-11-13T00:31:34.930Z,996.19
2017-11-13T00:32:49.126Z,996.19
2017-11-13T00:34:03.527Z,996.22
2017-11-13T00:35:17.704Z,996.2
2017-11-13T00:36:31.905Z,996.2
2017-11-13T00:37:46.204Z,996.25
2017-11-13T00:39:01.055Z,996.23
2017-11-13T00:40:15.255Z,996.25
2017-11-13T00:41:29.460Z,996.27
2017-11-13T00:44:59.482Z,996.36
2017-11-13T00:46:14.387Z,996.34
2017-11-13T00:47:28.696Z,996.38
2017-11-13T00:50:27.954Z,996.41
2017-11-13T00:51:42.147Z,996.45
2017-11-13T00:52:56.543Z,996.45
2017-11-13T00:54:10.803Z,996.51
2017-11-13T00:55:25.870Z,996.47
2017-11-13T00:56:40.090Z,996.5
2017-11-13T00:57:54.324Z,996.48
2017-11-13T00:59:08.930Z,996.49
2017-11-13T01:00:38.446Z,996.49
2017-11-13T01:01:52.669Z,996.52
2017-11-13T01:03:07.831Z,996.55
2017-11-13T01:04:22.232Z,996.56
2017-11-13T01:05:37.592Z,996.58
2017-11-13T01:06:51.785Z,996.56
2017-11-13T01:08:05.994Z,996.57
2017-11-13T01:09:20.196Z,996.58
2017-11-13T01:10:35.122Z,996.55
2017-11-13T01:11:49.749Z,996.55
2017-11-13T01:13:03.960Z,996.51
2017-11-13T01:14:18.217Z,996.59
2017-11-13T01:15:32.598Z,996.57
2017-11-13T01:16:46.799Z,996.58
2017-11-13T01:18:01.006Z,996.59
2017-11-13T01:19:15.191Z,996.63
2017-11-13T01:20:29.773Z,996.67
2017-11-13T01:21:44.193Z,996.68
2017-11-13T01:22:58.820Z,996.64
2017-11-13T01:24:13.029Z,996.65
2017-11-13T01:25:27.407Z,996.66
2017-11-13T01:26:41.580Z,996.62
2017-11-13T01:27:55.759Z,996.66
2017-11-13T01:29:10.115Z,996.62
2017-11-13T01:30:24.747Z,996.63
2017-11-13T01:31:38.960Z,996.58
2017-11-13T01:32:53.222Z,996.63
2017-11-13T01:34:07.429Z,996.66
2017-11-13T01:35:22.031Z,996.63
2017-11-13T01:36:36.464Z,996.73
2017-11-13T01:37:50.906Z,996.71
2017-11-13T01:42:41.057Z,996.71
2017-11-13T01:45:47.714Z,996.77
2017-11-13T01:47:01.975Z,996.73
2017-11-13T01:48:16.295Z,996.76
2017-11-13T01:49:30.479Z,996.74
2017-11-13T01:50:45.034Z,996.75
2017-11-13T01:51:59.417Z,996.76
2017-11-13T01:53:13.984Z,996.79
2017-11-13T01:54:28.265Z,996.77
2017-11-13T01:55:42.536Z,996.83
2017-11-13T01:58:42.954Z,996.8
2017-11-13T01:59:57.224Z,996.89
2017-11-13T02:01:12.027Z,996.87
2017-11-13T02:02:26.232Z,996.88
2017-11-13T02:03:41.001Z,996.91
2017-11-13T02:04:55.207Z,996.93
2017-11-13T02:06:09.421Z,996.93
2017-11-13T02:07:24.116Z,997.02
2017-11-13T02:08:38.329Z,997.03
2017-11-13T02:09:52.615Z,997.02
2017-11-13T02:11:07.550Z,997.09
2017-11-13T02:12:21.865Z,997.1
2017-11-13T02:13:36.077Z,997.12
2017-11-13T02:14:50.377Z,997.2
2017-11-13T02:16:04.592Z,997.18
2017-11-13T02:17:18.859Z,997.17
2017-11-13T02:18:33.196Z,997.27
2017-11-13T02:19:48.107Z,997.26
2017-11-13T02:21:02.415Z,997.3
2017-11-13T02:22:16.715Z,997.35
2017-11-13T02:23:30.924Z,997.33
2017-11-13T02:24:45.117Z,997.36
2017-11-13T02:25:59.348Z,997.38
2017-11-13T02:27:13.831Z,997.41
2017-11-13T02:28:28.047Z,997.39
2017-11-13T02:29:42.612Z,997.45
2017-11-13T02:30:56.806Z,997.45
2017-11-13T02:32:11.751Z,997.5
2017-11-13T02:33:26.682Z,997.53
2017-11-13T02:34:40.874Z,997.57
2017-11-13T02:35:55.036Z,997.56
2017-11-13T02:37:09.216Z,997.61
2017-11-13T02:38:23.718Z,997.59
2017-11-13T02:39:37.933Z,997.64
2017-11-13T02:40:52.136Z,997.63
2017-11-13T02:42:06.328Z,997.64
2017-11-13T02:43:20.732Z,997.68
2017-11-13T02:44:34.930Z,997.68
2017-11-13T02:45:49.124Z,997.67
2017-11-13T02:47:03.339Z,997.67
2017-11-13T02:48:18.231Z,997.68
2017-11-13T02:49:32.431Z,997.73
2017-11-13T02:50:46.621Z,997.72
2017-11-13T02:52:01.223Z,997.78
2017-11-13T02:53:15.580Z,997.77
2017-11-13T02:54:29.786Z,997.77
2017-11-13T02:55:43.981Z,997.73
2017-11-13T02:56:58.319Z,997.75
2017-11-13T02:58:12.514Z,997.84
2017-11-13T02:59:26.911Z,997.87
2017-11-13T03:00:41.108Z,997.84
2017-11-13T03:01:55.298Z,997.89
2017-11-13T03:03:09.548Z,997.87
2017-11-13T03:04:23.732Z,997.93
2017-11-13T03:05:38.694Z,997.92
2017-11-13T03:06:53.292Z,997.95
2017-11-13T03:08:07.515Z,998
2017-11-13T03:09:21.794Z,997.97
2017-11-13T03:10:35.983Z,998
2017-11-13T03:11:50.228Z,998.09
2017-11-13T03:13:04.420Z,998.11
2017-11-13T03:14:18.924Z,998.15
2017-11-13T03:15:33.441Z,998.17
2017-11-13T03:16:47.614Z,998.2
2017-11-13T03:18:01.846Z,998.21
2017-11-13T03:20:45.102Z,998.28
2017-11-13T03:21:59.763Z,998.26
2017-11-13T03:23:14.336Z,998.22
2017-11-13T03:24:28.757Z,998.35
2017-11-13T03:25:42.958Z,998.29
2017-11-13T03:26:58.093Z,998.35
2017-11-13T03:28:12.812Z,998.38
2017-11-13T03:29:27.043Z,998.38
2017-11-13T03:30:41.422Z,998.38
2017-11-13T03:31:56.395Z,998.42
2017-11-13T03:33:10.621Z,998.43
2017-11-13T03:34:24.812Z,998.45
2017-11-13T03:35:39.104Z,998.44
2017-11-13T03:36:53.311Z,998.46
2017-11-13T03:38:07.526Z,998.45
2017-11-13T03:39:21.719Z,998.49
2017-11-13T03:40:36.108Z,998.52
2017-11-13T03:41:50.297Z,998.51
2017-11-13T03:43:04.487Z,998.58
2017-11-13T03:44:18.946Z,998.52
2017-11-13T03:45:33.221Z,998.57
2017-11-13T03:46:47.556Z,998.63
2017-11-13T03:48:01.867Z,998.66
2017-11-13T03:49:17.049Z,998.67
2017-11-13T03:50:32.179Z,998.73
2017-11-13T03:51:46.443Z,998.75
2017-11-13T03:53:00.727Z,998.73
2017-11-13T03:54:14.965Z,998.82
2017-11-13T03:55:29.521Z,998.86
2017-11-13T03:56:44.875Z,998.89
2017-11-13T03:57:59.073Z,998.85
2017-11-13T03:59:13.278Z,998.87
2017-11-13T04:00:27.501Z,998.91
2017-11-13T04:01:42.237Z,998.94
2017-11-13T04:02:56.423Z,998.96
2017-11-13T04:04:10.604Z,999
2017-11-13T04:05:24.957Z,998.95
2017-11-13T04:06:39.272Z,998.98
2017-11-13T04:07:53.468Z,998.92
2017-11-13T04:09:07.653Z,998.97
2017-11-13T04:10:21.846Z,998.96
2017-11-13T04:11:36.667Z,998.97
2017-11-13T04:12:50.873Z,999
2017-11-13T04:14:05.063Z,998.97
2017-11-13T04:15:19.678Z,998.99
2017-11-13T04:16:34.070Z,999.01
2017-11-13T04:17:48.414Z,999.03
2017-11-13T04:19:02.618Z,999.04
2017-11-13T04:20:16.816Z,999.05
2017-11-13T04:21:31.219Z,999.11
2017-11-13T04:22:45.415Z,999.13
2017-11-13T04:23:59.643Z,999.12
2017-11-13T04:25:13.918Z,999.14
2017-11-13T04:26:28.141Z,999.13
2017-11-13T04:27:42.455Z,999.16
2017-11-13T04:28:56.638Z,999.2
2017-11-13T04:30:10.831Z,999.22
2017-11-13T04:31:25.428Z,999.21
2017-11-13T04:32:39.765Z,999.23
2017-11-13T04:33:53.981Z,999.26
2017-11-13T04:35:08.216Z,999.31
2017-11-13T04:36:22.619Z,999.34
2017-11-13T04:37:37.022Z,999.34
2017-11-13T04:38:51.463Z,999.42
2017-11-13T04:40:05.892Z,999.43
2017-11-13T04:41:20.111Z,999.38
2017-11-13T04:42:34.418Z,999.44
2017-11-13T04:43:49.862Z,999.42
2017-11-13T04:45:04.198Z,999.44
2017-11-13T04:46:19.287Z,999.38
2017-11-13T04:47:34.347Z,999.44
2017-11-13T04:48:51.593Z,999.41
2017-11-13T04:50:06.314Z,999.43
2017-11-13T04:51:22.779Z,999.45
2017-11-13T04:52:37.439Z,999.48
2017-11-13T04:53:52.376Z,999.46
2017-11-13T04:55:06.573Z,999.51
2017-11-13T04:56:20.811Z,999.55
2017-11-13T04:57:35.137Z,999.56
2017-11-13T04:58:50.371Z,999.53
2017-11-13T05:00:04.622Z,999.61
2017-11-13T05:01:18.819Z,999.59
2017-11-13T05:02:33.717Z,999.64
2017-11-13T05:03:48.139Z,999.61
2017-11-13T05:05:02.364Z,999.6
2017-11-13T05:06:16.549Z,999.63
2017-11-13T05:07:30.739Z,999.65
2017-11-13T05:08:45.125Z,999.63
2017-11-13T05:09:59.323Z,999.65
2017-11-13T05:11:14.384Z,999.62
2017-11-13T05:12:28.628Z,999.69
2017-11-13T05:13:42.825Z,999.7
2017-11-13T05:14:57.923Z,999.71
2017-11-13T05:16:12.364Z,999.72
2017-11-13T05:17:27.285Z,999.69
2017-11-13T05:18:42.259Z,999.72
2017-11-13T05:19:56.686Z,999.73
2017-11-13T05:21:10.957Z,999.72
2017-11-13T05:22:25.930Z,999.74
2017-11-13T05:23:40.425Z,999.77
2017-11-13T05:24:54.622Z,999.81
2017-11-13T05:26:08.810Z,999.8
2017-11-13T05:27:23.403Z,999.81
2017-11-13T05:28:38.548Z,999.81
2017-11-13T05:29:53.156Z,999.85
2017-11-13T05:31:07.702Z,999.88
2017-11-13T05:32:22.326Z,999.88
2017-11-13T05:33:37.699Z,999.82
2017-11-13T05:34:52.160Z,999.9
2017-11-13T05:36:06.401Z,999.93
2017-11-13T05:37:21.182Z,999.9
2017-11-13T05:38:35.404Z,999.92
2017-11-13T05:39:49.782Z,999.95
2017-11-13T05:41:04.110Z,999.97
2017-11-13T05:42:18.320Z,999.97
2017-11-13T05:43:33.292Z,999.97
2017-11-13T05:44:47.528Z,1000.04
2017-11-13T05:46:02.123Z,1000.06
2017-11-13T05:47:16.429Z,1000.1
2017-11-13T05:48:30.628Z,1000.13
2017-11-13T05:49:44.905Z,1000.15
2017-11-13T05:50:59.199Z,1000.18
2017-11-13T05:52:13.806Z,1000.18
2017-11-13T05:53:28.278Z,1000.19
2017-11-13T05:54:42.971Z,1000.23
2017-11-13T05:55:57.831Z,1000.23
2017-11-13T05:57:12.650Z,1000.22
2017-11-13T05:58:27.284Z,1000.2
2017-11-13T05:59:43.861Z,1000.18
2017-11-13T06:00:59.994Z,1000.19
2017-11-13T06:02:15.859Z,1000.25
2017-11-13T06:03:30.245Z,1000.2
2017-11-13T06:04:44.518Z,1000.21
2017-11-13T06:05:59.073Z,1000.25
2017-11-13T06:07:13.346Z,1000.25
2017-11-13T06:08:27.566Z,1000.3
2017-11-13T06:09:41.986Z,1000.35
2017-11-13T06:10:56.327Z,1000.34
2017-11-13T06:12:10.732Z,1000.38
2017-11-13T06:13:24.965Z,1000.36
2017-11-13T06:14:39.191Z,1000.34
2017-11-13T06:15:53.866Z,1000.36
2017-11-13T06:17:08.365Z,1000.43
2017-11-13T06:18:23.390Z,1000.46
2017-11-13T06:19:39.229Z,1000.47
2017-11-13T06:20:54.718Z,1000.44
2017-11-13T06:22:15.281Z,1000.52
2017-11-13T06:23:30.000Z,1000.56
2017-11-13T06:24:44.710Z,1000.6
2017-11-13T06:25:59.589Z,1000.56
2017-11-13T06:27:15.508Z,1000.58
2017-11-13T06:28:30.818Z,1000.65
2017-11-13T06:29:46.202Z,1000.62
2017-11-13T06:31:01.424Z,1000.7
2017-11-13T06:32:15.708Z,1000.69
2017-11-13T06:33:30.383Z,1000.74
2017-11-13T06:34:45.368Z,1000.82
2017-11-13T06:36:00.120Z,1000.8
2017-11-13T06:37:14.975Z,1000.84
2017-11-13T06:38:29.550Z,1000.85
2017-11-13T06:39:44.523Z,1000.86
2017-11-13T06:40:58.824Z,1000.84
2017-11-13T06:42:13.292Z,1000.84
2017-11-13T06:43:27.948Z,1000.92
2017-11-13T06:44:42.664Z,1000.87
2017-11-13T06:45:56.941Z,1000.95
2017-11-13T06:47:11.715Z,1001
2017-11-13T06:48:27.689Z,1001.01
2017-11-13T06:49:42.063Z,1001.03
2017-11-13T06:50:56.290Z,1001.07
2017-11-13T06:52:10.996Z,1001.05
2017-11-13T06:53:26.550Z,1001.03
2017-11-13T06:54:41.332Z,1001.12
2017-11-13T06:55:55.687Z,1001.09
2017-11-13T06:57:11.303Z,1001.11
2017-11-13T06:58:25.586Z,1001.11
2017-11-13T06:59:40.512Z,1001.15
2017-11-13T07:00:55.577Z,1001.19
2017-11-13T07:02:10.029Z,1001.23
2017-11-13T07:03:27.296Z,1001.26
2017-11-13T07:04:42.093Z,1001.33
2017-11-13T07:05:56.904Z,1001.3
2017-11-13T07:07:11.143Z,1001.34
2017-11-13T07:08:25.333Z,1001.41
2017-11-13T07:09:39.696Z,1001.36
2017-11-13T07:10:55.000Z,1001.45
2017-11-13T07:12:10.012Z,1001.41
2017-11-13T07:13:24.492Z,1001.39
2017-11-13T07:14:38.697Z,1001.43
2017-11-13T07:15:53.800Z,1001.43
2017-11-13T07:17:08.102Z,1001.42
2017-11-13T07:18:22.735Z,1001.46
2017-11-13T07:19:37.008Z,1001.47
2017-11-13T07:20:52.270Z,1001.48
2017-11-13T07:22:06.517Z,1001.5
2017-11-13T07:23:21.021Z,1001.44
2017-11-13T07:24:36.174Z,1001.47
2017-11-13T07:25:51.229Z,1001.52
2017-11-13T07:27:05.483Z,1001.52
2017-11-13T07:28:39.405Z,1001.53
2017-11-13T07:29:53.811Z,1001.57
2017-11-13T07:31:08.039Z,1001.62
2017-11-13T07:32:23.128Z,1001.63
2017-11-13T07:33:38.291Z,1001.65
2017-11-13T07:34:53.046Z,1001.68
2017-11-13T07:36:07.525Z,1001.73
2017-11-13T07:37:21.738Z,1001.72
2017-11-13T07:38:35.951Z,1001.72
2017-11-13T07:39:50.833Z,1001.75
2017-11-13T07:41:05.047Z,1001.74
2017-11-13T07:42:19.276Z,1001.75
2017-11-13T07:43:33.543Z,1001.77
2017-11-13T07:44:48.239Z,1001.77
2017-11-13T07:46:03.245Z,1001.81
2017-11-13T07:47:17.471Z,1001.81
2017-11-13T07:48:32.152Z,1001.89
2017-11-13T07:49:46.348Z,1001.91
2017-11-13T07:51:01.059Z,1001.92
2017-11-13T07:52:15.957Z,1002
2017-11-13T07:53:30.549Z,1001.98
2017-11-13T07:54:44.755Z,1002.01
2017-11-13T07:55:59.135Z,1002.02
2017-11-13T07:57:13.461Z,1002.03
2017-11-13T07:58:28.846Z,1002.1
2017-11-13T07:59:43.802Z,1002.15
2017-11-13T08:00:58.596Z,1002.16
2017-11-13T08:02:13.385Z,1002.15
2017-11-13T08:03:27.652Z,1002.16
2017-11-13T08:04:42.730Z,1002.22
2017-11-13T08:05:57.183Z,1002.22
2017-11-13T08:07:12.616Z,1002.23
2017-11-13T08:08:27.628Z,1002.18
2017-11-13T08:09:41.867Z,1002.14
2017-11-13T08:10:57.715Z,1002.2
2017-11-13T08:12:12.453Z,1002.24
2017-11-13T08:13:26.695Z,1002.31
2017-11-13T08:14:40.932Z,1002.29
2017-11-13T08:15:55.209Z,1002.33
2017-11-13T08:17:10.776Z,1002.38
2017-11-13T08:18:25.841Z,1002.42
2017-11-13T08:19:40.702Z,1002.47
2017-11-13T08:20:55.907Z,1002.5
2017-11-13T08:22:10.241Z,1002.51
2017-11-13T08:23:25.362Z,1002.59
2017-11-13T08:24:39.572Z,1002.62
2017-11-13T08:25:53.867Z,1002.64
2017-11-13T08:27:08.393Z,1002.67
2017-11-13T08:28:22.627Z,1002.65
2017-11-13T08:29:36.896Z,1002.67
2017-11-13T08:30:51.184Z,1002.64
2017-11-13T08:32:06.317Z,1002.65
2017-11-13T08:33:20.584Z,1002.64
2017-11-13T08:34:34.858Z,1002.61
2017-11-13T08:35:49.185Z,1002.61
2017-11-13T08:37:04.011Z,1002.65
2017-11-13T08:38:19.126Z,1002.7
2017-11-13T08:39:35.677Z,1002.66
2017-11-13T08:40:51.251Z,1002.72
2017-11-13T08:42:06.275Z,1002.73
2017-11-13T08:43:21.421Z,1002.7
2017-11-13T08:44:37.503Z,1002.77
2017-11-13T08:45:52.741Z,1002.79
2017-11-13T08:47:07.132Z,1002.83
2017-11-13T08:48:21.920Z,1002.84
2017-11-13T08:49:36.574Z,1002.89
2017-11-13T08:50:52.796Z,1002.85
2017-11-13T08:52:07.921Z,1002.82
2017-11-13T08:53:22.328Z,1002.83
2017-11-13T08:54:37.319Z,1002.82
2017-11-13T08:55:51.554Z,1002.89
2017-11-13T08:57:05.907Z,1002.86
2017-11-13T08:58:20.243Z,1002.87
2017-11-13T08:59:34.485Z,1002.83
2017-11-13T09:00:49.119Z,1003.05
2017-11-13T09:02:03.578Z,1003.05
2017-11-13T09:03:18.256Z,1003.04
2017-11-13T09:04:33.467Z,1003.1
2017-11-13T09:05:47.888Z,1003.15
2017-11-13T09:07:03.686Z,1003.18
2017-11-13T09:08:19.891Z,1003.18
2017-11-13T09:09:35.168Z,1003.24
2017-11-13T09:10:50.376Z,1003.24
2017-11-13T09:12:05.223Z,1003.25
2017-11-13T09:13:20.132Z,1003.29
2017-11-13T09:14:35.593Z,1003.31
2017-11-13T09:15:50.540Z,1003.37
2017-11-13T09:17:05.108Z,1003.38
2017-11-13T09:18:20.043Z,1003.39
2017-11-13T09:19:34.535Z,1003.37
2017-11-13T09:20:49.463Z,1003.33
2017-11-13T09:22:04.301Z,1003.33
2017-11-13T09:23:19.539Z,1003.4
2017-11-13T09:24:34.798Z,1003.44
2017-11-13T09:25:50.265Z,1003.41
2017-11-13T09:27:04.737Z,1003.39
2017-11-13T09:28:19.597Z,1003.37
2017-11-13T09:29:34.228Z,1003.39
2017-11-13T09:30:49.030Z,1003.46
2017-11-13T09:32:03.281Z,1003.56
2017-11-13T09:33:18.285Z,1003.57
2017-11-13T09:34:32.519Z,1003.55
2017-11-13T09:35:46.825Z,1003.57
2017-11-13T09:37:01.050Z,1003.61
2017-11-13T09:38:15.677Z,1003.65
2017-11-13T09:39:30.606Z,1003.68
2017-11-13T09:40:45.861Z,1003.72
2017-11-13T09:42:00.862Z,1003.72
2017-11-13T09:43:15.711Z,1003.77
2017-11-13T09:44:30.393Z,1003.82
2017-11-13T09:45:45.363Z,1003.82
2017-11-13T09:46:59.989Z,1003.88
2017-11-13T09:48:15.299Z,1003.85
2017-11-13T09:49:29.462Z,1003.9
2017-11-13T09:50:43.659Z,1003.86
2017-11-13T09:51:57.875Z,1003.93
2017-11-13T09:53:13.077Z,1003.95
2017-11-13T09:54:27.883Z,1003.97
2017-11-13T09:55:42.525Z,1003.96
2017-11-13T09:56:56.660Z,1004.01
2017-11-13T09:58:11.183Z,1003.99
2017-11-13T09:59:27.326Z,1004.01
2017-11-13T10:00:42.091Z,1003.97
2017-11-13T10:01:56.386Z,1004
2017-11-13T10:03:11.774Z,1004.01
2017-11-13T10:04:26.388Z,1004.02
2017-11-13T10:05:40.596Z,1004.01
2017-11-13T10:06:55.530Z,1004
2017-11-13T10:08:10.612Z,1003.98
2017-11-13T10:09:25.324Z,1003.96
2017-11-13T10:10:39.710Z,1004.01
2017-11-13T10:11:54.380Z,1003.97
2017-11-13T10:13:08.901Z,1004
2017-11-13T10:14:23.903Z,1004.03
2017-11-13T10:15:39.020Z,1003.99
2017-11-13T10:16:54.459Z,1003.98
2017-11-13T10:18:09.061Z,1004.03
2017-11-13T10:19:24.252Z,1004.03
2017-11-13T10:20:38.635Z,1004.03
2017-11-13T10:21:54.770Z,1004.02
2017-11-13T10:23:09.780Z,1004.04
2017-11-13T10:24:24.500Z,1004.03
2017-11-13T10:25:40.317Z,1004.01
2017-11-13T10:26:54.678Z,1003.95
2017-11-13T10:28:09.404Z,1003.93
2017-11-13T10:29:24.909Z,1003.94
2017-11-13T10:30:39.101Z,1003.86
2017-11-13T10:31:53.317Z,1003.86
2017-11-13T10:33:08.668Z,1003.85
2017-11-13T10:34:24.794Z,1003.88
2017-11-13T10:35:40.034Z,1003.93
2017-11-13T10:36:55.464Z,1003.9
2017-11-13T10:38:11.650Z,1003.96
2017-11-13T10:39:26.516Z,1003.92
2017-11-13T10:40:41.508Z,1003.84
2017-11-13T10:41:57.742Z,1003.79
2017-11-13T10:43:12.025Z,1003.86
2017-11-13T10:44:27.135Z,1003.9
2017-11-13T10:45:43.277Z,1003.92
2017-11-13T10:46:58.092Z,1003.98
2017-11-13T10:48:13.257Z,1003.9
2017-11-13T10:49:29.810Z,1003.93
2017-11-13T10:50:46.108Z,1003.92
2017-11-13T10:52:01.942Z,1003.94
2017-11-13T10:53:17.564Z,1003.95
2017-11-13T10:54:34.914Z,1003.9
2017-11-13T10:55:52.581Z,1003.94
2017-11-13T10:57:08.409Z,1003.98
2017-11-13T10:58:23.644Z,1003.97
2017-11-13T10:59:38.224Z,1003.97
2017-11-13T11:00:52.934Z,1004
2017-11-13T11:02:07.904Z,1004.04
2017-11-13T11:03:23.178Z,1004.01
2017-11-13T11:04:37.637Z,1004.04
2017-11-13T11:05:52.112Z,1003.98
2017-11-13T11:07:07.314Z,1004.03
2017-11-13T11:08:21.919Z,1004.13
2017-11-13T11:09:36.301Z,1004.08
2017-11-13T11:10:51.646Z,1003.98
2017-11-13T11:12:06.299Z,1004.02
2017-11-13T11:13:21.026Z,1004.15
2017-11-13T11:14:36.077Z,1004.14
2017-11-13T11:15:50.273Z,1004.18
2017-11-13T11:17:04.565Z,1004.11
2017-11-13T11:18:19.299Z,1004.12
2017-11-13T11:19:33.613Z,1004.28
2017-11-13T11:20:47.773Z,1004.1
2017-11-13T11:22:02.968Z,1004.18
2017-11-13T11:23:17.947Z,1004.1
2017-11-13T11:24:33.129Z,1004.06
2017-11-13T11:25:47.396Z,1004.04
2017-11-13T11:27:02.768Z,1004.03
2017-11-13T11:28:18.409Z,1004.08
2017-11-13T11:29:35.199Z,1003.99
2017-11-13T11:30:51.357Z,1004.05
2017-11-13T11:32:07.275Z,1004.03
2017-11-13T11:33:22.475Z,1004.06
2017-11-13T11:34:39.759Z,1004.03
2017-11-13T11:35:54.514Z,1004.02
2017-11-13T11:37:09.934Z,1004.03
2017-11-13T11:38:25.651Z,1004.09
2017-11-13T11:39:56.717Z,1004.06
2017-11-13T11:41:13.579Z,1004.04
2017-11-13T11:42:28.051Z,1004.13
2017-11-13T11:43:42.418Z,1004.13
2017-11-13T11:44:56.578Z,1004.1
2017-11-13T11:46:10.764Z,1004.11
2017-11-13T11:47:26.023Z,1004.16
2017-11-13T11:48:40.524Z,1004.15
2017-11-13T11:49:56.089Z,1004.21
2017-11-13T11:51:11.250Z,1004.22
2017-11-13T11:52:27.352Z,1004.2
2017-11-13T11:53:42.144Z,1004.18
2017-11-13T11:54:57.188Z,1004.22
2017-11-13T11:56:11.854Z,1004.17
2017-11-13T11:57:27.061Z,1004.22
2017-11-13T11:58:42.127Z,1004.21
2017-11-13T12:00:11.673Z,1004.21
2017-11-13T12:01:26.245Z,1004.25
2017-11-13T12:02:40.448Z,1004.19
2017-11-13T12:03:54.722Z,1004.25
2017-11-13T12:05:08.883Z,1004.25
2017-11-13T12:06:23.282Z,1004.29
2017-11-13T12:07:38.397Z,1004.27
2017-11-13T12:08:52.571Z,1004.24
2017-11-13T12:10:07.789Z,1004.28
2017-11-13T12:11:23.572Z,1004.41
2017-11-13T12:12:37.963Z,1004.37
2017-11-13T12:13:53.907Z,1004.38
2017-11-13T12:15:09.696Z,1004.43
2017-11-13T12:16:24.799Z,1004.38
2017-11-13T12:17:41.068Z,1004.35
2017-11-13T12:18:55.662Z,1004.39
2017-11-13T12:20:10.835Z,1004.3
2017-11-13T12:21:25.490Z,1004.34
2017-11-13T12:22:40.279Z,1004.41
2017-11-13T12:23:55.141Z,1004.4
2017-11-13T12:25:10.043Z,1004.36
2017-11-13T12:26:24.725Z,1004.29
2017-11-13T12:27:40.661Z,1004.33
2017-11-13T12:28:55.246Z,1004.34
2017-11-13T12:30:09.986Z,1004.34
2017-11-13T12:31:24.151Z,1004.35
2017-11-13T12:32:38.601Z,1004.3
2017-11-13T12:33:52.770Z,1004.33
2017-11-13T12:35:07.550Z,1004.41
2017-11-13T12:36:22.726Z,1004.37
2017-11-13T12:37:38.222Z,1004.39
2017-11-13T12:38:53.281Z,1004.36
2017-11-13T12:40:07.599Z,1004.38
2017-11-13T12:41:22.613Z,1004.42
2017-11-13T12:42:37.469Z,1004.46
2017-11-13T12:43:52.634Z,1004.47
2017-11-13T12:45:07.535Z,1004.51
2017-11-13T12:46:21.725Z,1004.56
2017-11-13T12:47:36.136Z,1004.63
2017-11-13T12:48:51.813Z,1004.63
2017-11-13T12:50:06.628Z,1004.57
2017-11-13T12:51:20.812Z,1004.55
2017-11-13T12:52:34.962Z,1004.54
2017-11-13T12:53:49.124Z,1004.54
2017-11-13T12:55:04.519Z,1004.56
2017-11-13T12:56:20.212Z,1004.51
2017-11-13T12:57:35.880Z,1004.44
2017-11-13T12:58:51.112Z,1004.48
2017-11-13T13:00:05.320Z,1004.46
2017-11-13T13:01:19.704Z,1004.46
2017-11-13T13:02:34.089Z,1004.47
2017-11-13T13:03:49.579Z,1004.52
2017-11-13T13:05:06.235Z,1004.51
2017-11-13T13:06:21.107Z,1004.48
2017-11-13T13:07:35.592Z,1004.57
2017-11-13T13:08:50.683Z,1004.53
2017-11-13T13:10:04.930Z,1004.54
2017-11-13T13:11:19.389Z,1004.45
2017-11-13T13:12:34.777Z,1004.57
2017-11-13T13:13:49.000Z,1004.53
2017-11-13T13:15:03.182Z,1004.57
2017-11-13T13:16:17.583Z,1004.57
2017-11-13T13:17:32.135Z,1004.58
2017-11-13T13:18:46.310Z,1004.55
2017-11-13T13:20:00.994Z,1004.62
2017-11-13T13:21:15.712Z,1004.67
2017-11-13T13:22:30.394Z,1004.59
2017-11-13T13:23:44.663Z,1004.61
2017-11-13T13:24:58.916Z,1004.61
2017-11-13T13:26:28.581Z,1004.61
2017-11-13T13:27:42.768Z,1004.59
2017-11-13T13:28:57.007Z,1004.68
2017-11-13T13:30:11.852Z,1004.67
2017-11-13T13:31:26.832Z,1004.65
2017-11-13T13:32:41.756Z,1004.73
2017-11-13T13:33:56.135Z,1004.8
2017-11-13T13:35:10.288Z,1004.8
2017-11-13T13:36:24.665Z,1004.84
2017-11-13T13:37:38.814Z,1004.84
2017-11-13T13:38:53.032Z,1004.84
2017-11-13T13:40:07.440Z,1004.86
2017-11-13T13:41:21.778Z,1004.85
2017-11-13T13:42:35.974Z,1004.87
2017-11-13T13:43:50.188Z,1004.97
2017-11-13T13:45:05.977Z,1004.87
2017-11-13T13:46:21.594Z,1005.02
2017-11-13T13:47:36.408Z,1004.97
2017-11-13T13:48:50.896Z,1005.1
2017-11-13T13:50:05.662Z,1004.98
2017-11-13T13:51:22.112Z,1005.04
2017-11-13T13:52:36.987Z,1005.16
2017-11-13T13:53:52.867Z,1005.09
2017-11-13T13:55:08.104Z,1005.12
2017-11-13T13:56:24.100Z,1005.12
2017-11-13T13:57:39.711Z,1005.17
2017-11-13T13:58:55.366Z,1005.24
2017-11-13T14:00:11.263Z,1005.22
2017-11-13T14:01:26.011Z,1005.23
2017-11-13T14:02:40.763Z,1005.25
2017-11-13T14:03:57.814Z,1005.26
2017-11-13T14:05:12.012Z,1005.28
2017-11-13T14:06:26.193Z,1005.27
2017-11-13T14:07:40.640Z,1005.29
2017-11-13T14:08:54.968Z,1005.28
2017-11-13T14:10:09.644Z,1005.35
2017-11-13T14:11:24.376Z,1005.38
2017-11-13T14:12:39.270Z,1005.41
2017-11-13T14:13:54.772Z,1005.38
2017-11-13T14:15:09.341Z,1005.43
2017-11-13T14:16:26.405Z,1005.44
2017-11-13T14:17:42.750Z,1005.5
2017-11-13T14:18:57.445Z,1005.55
2017-11-13T14:20:12.489Z,1005.57
2017-11-13T14:21:27.241Z,1005.59
2017-11-13T14:22:41.475Z,1005.59
2017-11-13T14:23:56.448Z,1005.69
2017-11-13T14:25:13.678Z,1005.73
2017-11-13T14:26:28.942Z,1005.78
2017-11-13T14:27:43.538Z,1005.78
2017-11-13T14:28:57.749Z,1005.74
2017-11-13T14:30:12.427Z,1005.78
2017-11-13T14:31:27.000Z,1005.88
2017-11-13T14:32:42.581Z,1005.91
2017-11-13T14:33:57.536Z,1005.82
2017-11-13T14:35:11.974Z,1005.83
2017-11-13T14:36:26.666Z,1005.84
2017-11-13T14:37:41.789Z,1005.92
2017-11-13T14:38:57.120Z,1005.91
2017-11-13T14:40:12.819Z,1005.9
2017-11-13T14:41:30.214Z,1005.92
2017-11-13T14:42:47.559Z,1005.95
2017-11-13T14:44:04.581Z,1005.91
2017-11-13T14:45:19.958Z,1005.88
2017-11-13T14:46:35.480Z,1005.9
2017-11-13T14:47:50.659Z,1005.9
2017-11-13T14:49:05.413Z,1005.91
2017-11-13T14:50:21.495Z,1005.93
2017-11-13T14:51:37.125Z,1005.88
2017-11-13T14:52:53.073Z,1005.88
2017-11-13T14:54:08.189Z,1005.91
2017-11-13T14:55:22.913Z,1005.94
2017-11-13T14:56:37.176Z,1005.92
2017-11-13T14:57:52.125Z,1006.01
2017-11-13T14:59:08.592Z,1005.99
2017-11-13T15:00:23.564Z,1006.07
2017-11-13T15:01:38.438Z,1006.04
2017-11-13T15:02:53.114Z,1006.08
2017-11-13T15:04:07.376Z,1006.18
2017-11-13T15:05:21.785Z,1006.13
2017-11-13T15:06:36.196Z,1006.19
2017-11-13T15:07:51.490Z,1006.17
2017-11-13T15:09:05.683Z,1006.2
2017-11-13T15:10:20.075Z,1006.2
2017-11-13T15:11:34.590Z,1006.22
2017-11-13T15:12:50.784Z,1006.26
2017-11-13T15:14:05.235Z,1006.29
2017-11-13T15:15:19.399Z,1006.31
2017-11-13T15:16:33.758Z,1006.28
2017-11-13T15:17:47.956Z,1006.32
2017-11-13T15:19:02.192Z,1006.3
2017-11-13T15:20:16.535Z,1006.3
2017-11-13T15:21:30.891Z,1006.34
2017-11-13T15:22:45.050Z,1006.28
2017-11-13T15:23:59.226Z,1006.31
2017-11-13T15:25:13.437Z,1006.3
2017-11-13T15:26:28.487Z,1006.31
2017-11-13T15:27:43.173Z,1006.36
2017-11-13T15:32:52.773Z,1006.38
2017-11-13T15:34:08.406Z,1006.42
2017-11-13T15:35:22.689Z,1006.49